Terminal Aerodrome Forecast
Issued by NWS Albany, NY

Home | Current Version | Previous Version | Text Only | Print | Product List | Glossary On
Versions: 1 2 3 4 5 6 7 8 9 10 11 12 13 14 15 16 17 18 19 20 21 22 23
000
FTUS41 KALY 070326 AAA
TAFPOU
TAF AMD
KPOU 070326Z 0703/0724 18004KT P6SM FEW020 SCT080 BKN120
      TEMPO 0703/0705 BKN020
     FM070500 VRB02KT 6SM BR BKN020 BKN040
     FM070800 VRB02KT 5SM BR VCSH SCT008 OVC015
     FM071300 17004KT P6SM VCSH OVC020
     FM071700 19005KT P6SM -SHRA BKN035=

USA.gov is the U.S. government's official web portal to all federal, state and local government web resources and services.